Time;durP1;ratioP1;P1;durP2;ratioP2;P2;SDS_P1;SDS_P2;PMS_P1;PMS_P2;Temp;Humidity;BMP_temperature;BMP_pressure;BME280_temperature;BME280_humidity;BME280_pressure;Samples;Min_cycle;Max_cycle;Signal;HPM_P1;HPM_P2
2022/10/30 00:00:11;;;;;;;18.13;7.93;;;;;;;10.32;100.00;99512.41;5067808;28;21092;-94
2022/10/30 00:02:38;;;;;;;17.02;7.85;;;;;;;10.30;100.00;99511.56;5064163;28;20134;-94
2022/10/30 00:05:05;;;;;;;13.20;6.85;;;;;;;10.25;100.00;99510.69;5067120;28;20040;-94
2022/10/30 00:07:31;;;;;;;20.23;8.20;;;;;;;10.12;100.00;99491.38;5067341;28;20020;-94
2022/10/30 00:09:56;;;;;;;17.25;7.30;;;;;;;10.15;100.00;99511.72;5064829;28;20056;-93
2022/10/30 00:12:22;;;;;;;16.33;8.10;;;;;;;10.11;100.00;99500.28;5065113;28;20084;-95
2022/10/30 00:14:48;;;;;;;20.88;7.57;;;;;;;10.18;100.00;99528.50;5063107;28;20044;-94
2022/10/30 00:17:14;;;;;;;21.10;7.40;;;;;;;10.10;100.00;99518.88;5067111;28;20128;-92
2022/10/30 00:19:41;;;;;;;18.10;8.57;;;;;;;10.01;100.00;99510.13;5066612;28;20608;-93
2022/10/30 00:22:08;;;;;;;20.08;8.52;;;;;;;9.91;100.00;99497.88;5066046;28;20033;-94
2022/10/30 00:24:34;;;;;;;19.08;8.70;;;;;;;9.92;100.00;99502.28;5063858;28;20048;-94
2022/10/30 00:26:59;;;;;;;22.60;8.13;;;;;;;9.93;100.00;99524.41;5066514;28;20516;-93
2022/10/30 00:29:25;;;;;;;16.95;7.80;;;;;;;9.80;100.00;99495.34;5065296;28;20060;-94
2022/10/30 00:31:52;;;;;;;17.75;7.32;;;;;;;9.96;100.00;99527.91;5064757;28;20498;-92
2022/10/30 00:34:17;;;;;;;19.98;7.75;;;;;;;9.86;100.00;99510.31;5065294;28;20047;-94
2022/10/30 00:36:45;;;;;;;19.80;7.72;;;;;;;9.76;100.00;99504.25;5062436;28;20033;-92
2022/10/30 00:39:11;;;;;;;17.35;7.80;;;;;;;9.88;100.00;99527.13;5059103;28;20500;-95
2022/10/30 00:41:38;;;;;;;20.80;7.90;;;;;;;9.84;100.00;99499.72;5064022;28;20067;-93
2022/10/30 00:44:31;;;;;;;16.30;7.22;;;;;;;9.91;100.00;99520.88;5062443;28;20397;-93
2022/10/30 00:47:03;;;;;;;15.32;7.22;;;;;;;9.75;100.00;99501.63;5063725;28;20044;-93
2022/10/30 00:49:32;;;;;;;17.67;8.35;;;;;;;9.64;100.00;99493.78;5057729;28;20037;-93
2022/10/30 00:52:02;;;;;;;17.27;7.70;;;;;;;9.68;100.00;99502.59;5063056;28;20044;-94
2022/10/30 00:54:28;;;;;;;22.13;8.35;;;;;;;9.73;100.00;99506.06;5060136;28;20488;-94
2022/10/30 00:56:55;;;;;;;21.83;7.75;;;;;;;9.59;100.00;99499.13;5060771;28;20033;-92
2022/10/30 00:59:24;;;;;;;20.02;8.05;;;;;;;9.57;100.00;99498.28;5057070;28;20041;-95
2022/10/30 01:01:52;;;;;;;18.20;7.47;;;;;;;9.74;100.00;99522.00;5064680;28;20036;-93
2022/10/30 01:04:19;;;;;;;14.45;7.53;;;;;;;9.52;100.00;99486.84;5063746;28;20041;-93
2022/10/30 01:06:50;;;;;;;18.98;7.63;;;;;;;9.53;100.00;99487.72;5065017;28;20046;-94
2022/10/30 01:09:19;;;;;;;15.90;8.30;;;;;;;9.71;100.00;99522.00;5061814;28;20059;-93
2022/10/30 01:11:45;;;;;;;18.40;8.05;;;;;;;9.48;100.00;99489.53;5066107;28;20044;-93
2022/10/30 01:14:13;;;;;;;18.65;8.57;;;;;;;9.42;100.00;99479.88;5060012;28;20049;-93
2022/10/30 01:16:52;;;;;;;18.80;9.15;;;;;;;9.43;100.00;99486.91;5066247;28;20045;-92
2022/10/30 01:19:29;;;;;;;25.52;9.55;;;;;;;9.54;100.00;99508.94;5065068;28;20107;-93
2022/10/30 01:22:14;;;;;;;20.65;7.97;;;;;;;9.50;100.00;99498.34;5063098;28;20045;-93
2022/10/30 01:24:51;;;;;;;17.30;8.18;;;;;;;9.46;100.00;99489.56;5060451;28;20049;-92
2022/10/30 01:27:32;;;;;;;20.48;9.02;;;;;;;9.35;100.00;99472.88;5061616;28;20421;-92
2022/10/30 01:30:09;;;;;;;20.70;8.98;;;;;;;9.30;100.00;99467.59;5062638;28;20036;-94
2022/10/30 01:32:48;;;;;;;20.25;8.43;;;;;;;9.45;100.00;99494.00;5061214;28;20075;-94
2022/10/30 01:35:22;;;;;;;21.85;8.55;;;;;;;9.50;100.00;99498.34;5064701;28;20103;-93
2022/10/30 01:37:54;;;;;;;22.10;8.98;;;;;;;9.34;100.00;99477.28;5062152;28;20391;-92
2022/10/30 01:40:22;;;;;;;18.52;8.95;;;;;;;9.24;100.00;99455.28;5065460;28;20513;-94
2022/10/30 01:42:51;;;;;;;17.65;8.45;;;;;;;9.29;100.00;99464.97;5063874;28;20049;-95
2022/10/30 01:45:25;;;;;;;19.50;8.90;;;;;;;9.26;100.00;99457.94;5065767;28;20075;-93
2022/10/30 01:48:13;;;;;;;21.63;8.35;;;;;;;9.42;100.00;99477.22;5062395;28;20494;-93
2022/10/30 01:50:46;;;;;;;17.95;8.15;;;;;;;9.32;100.00;99470.22;5065036;28;20067;-93
2022/10/30 01:53:21;;;;;;;16.63;8.20;;;;;;;9.43;100.00;99487.81;5065204;28;20041;-92
2022/10/30 01:55:56;;;;;;;20.30;7.82;;;;;;;9.35;100.00;99471.09;5063878;28;20045;-95
2022/10/30 01:58:30;;;;;;;14.63;7.72;;;;;;;9.22;100.00;99465.03;5061223;28;20087;-94
2022/10/30 02:00:57;;;;;;;21.23;8.25;;;;;;;9.39;100.00;99490.50;5064509;28;20389;-94
2022/10/30 02:03:24;;;;;;;17.10;7.90;;;;;;;9.18;100.00;99465.94;5065703;28;20056;-94
2022/10/30 02:05:52;;;;;;;22.52;8.82;;;;;;;9.13;100.00;99456.28;5063316;28;20028;-93
2022/10/30 02:08:19;;;;;;;15.23;7.70;;;;;;;9.05;100.00;99459.88;5062843;28;20045;-94
2022/10/30 02:10:47;;;;;;;18.63;8.48;;;;;;;9.10;100.00;99464.28;5063207;28;20435;-94
2022/10/30 02:13:15;;;;;;;16.98;8.55;;;;;;;9.07;100.00;99457.22;5062982;28;20041;-94
2022/10/30 02:15:42;;;;;;;17.15;7.53;;;;;;;9.09;100.00;99466.06;5063471;28;20044;-94
2022/10/30 02:18:09;;;;;;;16.40;8.32;;;;;;;8.98;100.00;99458.19;5064827;28;20045;-94
2022/10/30 02:20:37;;;;;;;17.42;7.20;;;;;;;9.03;100.00;99468.75;5065033;28;20076;-94
2022/10/30 02:23:03;;;;;;;17.25;8.00;;;;;;;8.88;100.00;99458.31;5068170;28;20044;-94
2022/10/30 02:25:29;;;;;;;18.88;7.53;;;;;;;8.83;100.00;99453.91;5070598;28;20037;-95
2022/10/30 02:27:55;;;;;;;17.05;7.90;;;;;;;8.92;100.00;99470.66;5067772;28;20102;-92
2022/10/30 02:30:21;;;;;;;19.25;8.07;;;;;;;8.82;100.00;99465.41;5065354;28;20071;-93
2022/10/30 02:32:47;;;;;;;20.67;8.13;;;;;;;8.90;100.00;99477.72;5068839;28;20048;-93
2022/10/30 02:35:13;;;;;;;14.15;7.43;;;;;;;8.91;100.00;99484.78;5068871;28;20090;-94
2022/10/30 02:37:40;;;;;;;19.27;8.30;;;;;;;8.75;100.00;99463.69;5068612;28;20041;-93
2022/10/30 02:40:07;;;;;;;17.20;8.45;;;;;;;8.70;100.00;99464.66;5062148;28;20124;-93
2022/10/30 02:42:33;;;;;;;17.30;7.60;;;;;;;8.63;100.00;99463.78;5064926;28;20045;-94
2022/10/30 02:44:59;;;;;;;16.08;8.18;;;;;;;8.54;100.00;99459.44;5070310;28;20136;-93
2022/10/30 02:47:25;;;;;;;20.35;8.63;;;;;;;8.58;100.00;99449.72;5065543;28;20430;-94
2022/10/30 02:49:50;;;;;;;20.42;8.23;;;;;;;8.69;100.00;99455.78;5064276;28;20052;-94
2022/10/30 02:52:16;;;;;;;19.35;8.27;;;;;;;8.67;100.00;99459.34;5060000;28;20033;-93
2022/10/30 02:54:44;;;;;;;19.52;8.40;;;;;;;8.53;100.00;99435.63;5061623;28;20102;-94
2022/10/30 02:57:09;;;;;;;15.60;6.78;;;;;;;8.62;100.00;99467.34;5064361;28;20044;-92
2022/10/30 02:59:35;;;;;;;15.27;7.50;;;;;;;8.57;100.00;99461.22;5065478;28;20037;-94
2022/10/30 03:02:01;;;;;;;12.50;7.28;;;;;;;8.56;100.00;99468.28;5065502;28;20032;-93
2022/10/30 03:04:27;;;;;;;15.77;6.68;;;;;;;8.61;100.00;99455.88;5065893;28;20044;-92
2022/10/30 03:06:53;;;;;;;12.20;6.43;;;;;;;8.54;100.00;99435.59;5066843;28;20036;-92
2022/10/30 03:09:19;;;;;;;12.98;6.25;;;;;;;8.63;100.00;99455.84;5067122;28;20086;-92
2022/10/30 03:11:46;;;;;;;13.20;6.30;;;;;;;8.43;100.00;99430.38;5065495;28;20055;-93
2022/10/30 03:14:12;;;;;;;17.95;7.05;;;;;;;8.42;100.00;99425.97;5066236;28;20037;-92
2022/10/30 03:16:38;;;;;;;15.30;6.82;;;;;;;8.70;100.00;99446.97;5064094;28;20033;-92
2022/10/30 03:19:04;;;;;;;20.25;7.90;;;;;;;8.75;100.00;99466.34;5063028;28;20036;-94
2022/10/30 03:21:30;;;;;;;13.63;7.55;;;;;;;8.59;100.00;99430.28;5064342;28;20040;-93
2022/10/30 03:23:56;;;;;;;21.00;7.63;;;;;;;8.88;100.00;99453.88;5064145;28;20124;-92
2022/10/30 03:26:22;;;;;;;19.30;7.75;;;;;;;8.75;100.00;99428.34;5060397;28;20039;-92
2022/10/30 03:28:49;;;;;;;19.27;8.80;;;;;;;8.84;100.00;99439.75;5064214;28;20064;-93
2022/10/30 03:31:17;;;;;;;15.30;6.60;;;;;;;8.79;100.00;99441.56;5065728;28;20453;-93
2022/10/30 03:33:45;;;;;;;20.00;7.70;;;;;;;8.83;100.00;99451.25;5063718;28;20064;-93
2022/10/30 03:36:13;;;;;;;17.58;7.30;;;;;;;8.84;100.00;99450.34;5066211;28;20090;-94
2022/10/30 03:38:39;;;;;;;17.73;7.85;;;;;;;8.82;100.00;99444.19;5061905;28;20458;-94
2022/10/30 03:41:06;;;;;;;20.30;7.07;;;;;;;9.00;100.00;99452.84;5064943;28;21251;-93
2022/10/30 03:43:32;;;;;;;17.23;6.90;;;;;;;9.05;100.00;99453.72;5064614;28;20498;-94
2022/10/30 03:45:59;;;;;;;17.58;7.30;;;;;;;9.14;100.00;99461.56;5063276;28;20045;-95
2022/10/30 03:48:26;;;;;;;15.77;7.15;;;;;;;9.18;100.00;99449.16;5065927;28;20041;-93
2022/10/30 03:50:53;;;;;;;16.08;7.38;;;;;;;9.21;100.00;99446.47;5064892;28;20052;-93
2022/10/30 03:53:19;;;;;;;13.02;6.63;;;;;;;9.17;100.00;99456.25;5065203;28;20044;-93
2022/10/30 03:55:45;;;;;;;17.88;7.30;;;;;;;9.07;100.00;99454.56;5066652;28;20090;-95
2022/10/30 03:58:11;;;;;;;15.73;6.72;;;;;;;8.86;100.00;99446.81;5066318;28;20045;-93
2022/10/30 04:00:36;;;;;;;15.63;6.95;;;;;;;8.77;100.00;99451.31;5066041;28;20037;-94
2022/10/30 04:03:07;;;;;;;20.25;8.57;;;;;;;8.65;100.00;99451.41;5063047;28;20048;-95
2022/10/30 04:05:34;;;;;;;20.27;7.65;;;;;;;8.53;100.00;99447.09;5064740;28;20474;-94
2022/10/30 04:08:01;;;;;;;19.98;7.80;;;;;;;8.48;100.00;99450.66;5063615;28;20067;-94
2022/10/30 04:10:30;;;;;;;16.50;8.15;;;;;;;8.38;100.00;99453.34;5068256;28;20064;-94
2022/10/30 04:12:59;;;;;;;15.25;6.70;;;;;;;8.28;100.00;99454.31;5063943;28;20119;-93
2022/10/30 04:15:25;;;;;;;13.27;7.40;;;;;;;8.28;100.00;99467.56;5064340;28;20044;-93
2022/10/30 04:17:51;;;;;;;16.55;7.13;;;;;;;8.16;100.00;99457.06;5064408;28;20052;-92
2022/10/30 04:20:20;;;;;;;16.60;7.72;;;;;;;8.10;100.00;99457.09;5064291;28;20072;-95
2022/10/30 04:22:46;;;;;;;15.27;8.00;;;;;;;8.19;100.00;99480.88;5068633;28;20057;-93
2022/10/30 04:25:12;;;;;;;17.92;8.38;;;;;;;8.11;100.00;99486.22;5066891;28;20077;-94
2022/10/30 04:27:39;;;;;;;29.33;8.27;;;;;;;7.98;100.00;99461.56;5067281;28;20127;-93
2022/10/30 04:30:07;;;;;;;23.48;8.23;;;;;;;7.98;100.00;99458.94;5062608;28;20044;-94
2022/10/30 04:32:32;;;;;;;21.15;10.05;;;;;;;8.05;100.00;99480.97;5065883;28;20056;-92
2022/10/30 04:34:58;;;;;;;19.95;8.57;;;;;;;7.95;100.00;99469.50;5060556;28;20494;-93
2022/10/30 04:37:26;;;;;;;19.38;8.25;;;;;;;7.91;100.00;99457.19;5062349;28;20036;-93
2022/10/30 04:39:52;;;;;;;23.17;8.68;;;;;;;7.86;100.00;99458.97;5066942;28;20075;-95
2022/10/30 04:42:17;;;;;;;20.40;8.00;;;;;;;7.86;100.00;99461.63;5064714;28;20481;-94
2022/10/30 04:44:43;;;;;;;19.20;9.10;;;;;;;7.87;100.00;99470.44;5064256;28;20352;-94
2022/10/30 04:47:09;;;;;;;19.98;8.80;;;;;;;8.06;100.00;99497.72;5064440;28;20053;-92
2022/10/30 04:49:35;;;;;;;19.85;9.65;;;;;;;7.88;100.00;99467.78;5065216;28;20037;-92
2022/10/30 04:52:01;;;;;;;21.25;8.48;;;;;;;7.93;100.00;99470.41;5062341;28;20453;-93
2022/10/30 04:54:28;;;;;;;21.60;8.80;;;;;;;7.85;100.00;99464.28;5066042;28;20048;-94
2022/10/30 04:56:54;;;;;;;18.42;9.05;;;;;;;7.95;100.00;99479.25;5065594;28;20123;-93
2022/10/30 04:59:20;;;;;;;20.63;8.98;;;;;;;7.92;100.00;99476.63;5064495;28;20497;-92
2022/10/30 05:01:45;;;;;;;23.35;9.52;;;;;;;7.86;100.00;99472.22;5065160;28;20052;-92
2022/10/30 05:04:11;;;;;;;20.63;10.07;;;;;;;7.80;100.00;99459.88;5059542;28;20044;-94
2022/10/30 05:06:37;;;;;;;25.17;10.45;;;;;;;7.86;100.00;99463.41;5070303;28;20036;-93
2022/10/30 05:09:03;;;;;;;29.05;9.90;;;;;;;7.88;100.00;99473.09;5062103;28;20115;-93
2022/10/30 05:11:31;;;;;;;28.23;10.15;;;;;;;7.84;100.00;99471.34;5064968;28;20494;-94
2022/10/30 05:13:56;;;;;;;23.30;10.43;;;;;;;7.90;100.00;99492.50;5068125;28;20432;-92
2022/10/30 05:16:22;;;;;;;23.98;9.07;;;;;;;7.84;100.00;99476.63;5065018;28;20033;-94
2022/10/30 05:18:48;;;;;;;20.08;9.35;;;;;;;7.86;100.00;99485.47;5066139;28;20075;-93
2022/10/30 05:21:14;;;;;;;20.88;9.35;;;;;;;7.77;100.00;99469.63;5070030;28;20474;-92
2022/10/30 05:23:40;;;;;;;20.90;8.90;;;;;;;7.65;100.00;99462.59;5068443;28;20049;-92
2022/10/30 05:26:06;;;;;;;23.98;9.80;;;;;;;7.77;100.00;99485.50;5060524;28;20537;-93
2022/10/30 05:28:33;;;;;;;21.73;9.73;;;;;;;7.68;100.00;99475.84;5066606;28;20044;-93
2022/10/30 05:30:59;;;;;;;19.63;10.10;;;;;;;7.76;100.00;99475.78;5063638;28;20052;-92
2022/10/30 05:33:25;;;;;;;19.88;8.63;;;;;;;7.73;100.00;99486.41;5062324;28;20041;-93
2022/10/30 05:35:51;;;;;;;21.85;9.98;;;;;;;7.54;100.00;99456.47;5065596;28;20485;-94
2022/10/30 05:38:16;;;;;;;25.35;9.23;;;;;;;7.50;100.00;99460.00;5061207;28;20101;-94
2022/10/30 05:40:45;;;;;;;24.92;9.55;;;;;;;7.58;100.00;99488.22;5062755;28;20049;-93
2022/10/30 05:43:11;;;;;;;22.02;9.40;;;;;;;7.65;100.00;99490.84;5059338;28;20589;-93
2022/10/30 05:45:38;;;;;;;24.48;10.60;;;;;;;7.66;100.00;99482.03;5060637;28;20124;-93
2022/10/30 05:48:05;;;;;;;25.45;10.52;;;;;;;7.52;100.00;99459.13;5057765;28;20445;-93
2022/10/30 05:50:32;;;;;;;21.17;9.60;;;;;;;7.58;100.00;99482.91;5064538;28;20418;-94
2022/10/30 05:52:58;;;;;;;19.30;8.93;;;;;;;7.62;100.00;99491.75;5067507;28;20045;-91
2022/10/30 05:55:27;;;;;;;20.50;9.07;;;;;;;7.57;100.00;99477.66;5065520;28;20106;-93
2022/10/30 05:57:57;;;;;;;19.95;9.52;;;;;;;7.48;100.00;99459.13;5062157;28;20036;-92
2022/10/30 06:00:24;;;;;;;23.33;9.68;;;;;;;7.53;100.00;99471.47;5066305;28;20382;-93
2022/10/30 06:02:52;;;;;;;20.60;8.73;;;;;;;7.51;100.00;99465.31;5065759;28;20048;-93
2022/10/30 06:05:17;;;;;;;24.95;9.27;;;;;;;7.57;100.00;99469.72;5060278;28;20041;-92
2022/10/30 06:07:43;;;;;;;18.52;9.07;;;;;;;7.59;100.00;99458.22;5069779;28;20045;-92
2022/10/30 06:10:09;;;;;;;20.08;9.13;;;;;;;7.69;100.00;99480.22;5062975;28;20106;-92
2022/10/30 06:12:35;;;;;;;21.10;8.90;;;;;;;7.69;100.00;99482.00;5065787;28;20045;-93
2022/10/30 06:15:01;;;;;;;18.92;9.25;;;;;;;7.81;100.00;99493.44;5059284;28;20068;-92
2022/10/30 06:17:30;;;;;;;19.88;8.85;;;;;;;7.90;100.00;99502.22;5060336;28;20043;-93
2022/10/30 06:19:57;;;;;;;19.45;8.65;;;;;;;7.71;100.00;99469.66;5062654;28;20060;-92
2022/10/30 06:22:23;;;;;;;22.67;8.93;;;;;;;7.85;100.00;99477.50;5064420;28;20573;-94
2022/10/30 06:24:49;;;;;;;18.23;8.30;;;;;;;8.04;100.00;99492.44;5061321;28;20072;-93
2022/10/30 06:27:14;;;;;;;19.80;8.65;;;;;;;8.08;100.00;99488.88;5063159;28;20057;-93
2022/10/30 06:29:40;;;;;;;17.98;9.07;;;;;;;8.15;100.00;99487.94;5061242;28;20104;-94
2022/10/30 06:32:07;;;;;;;18.33;8.23;;;;;;;8.19;100.00;99476.44;5060697;28;20029;-93
2022/10/30 06:34:33;;;;;;;16.33;8.23;;;;;;;8.20;100.00;99469.41;5062521;28;20039;-92
2022/10/30 06:37:00;;;;;;;24.02;9.40;;;;;;;8.25;100.00;99461.41;5064655;28;20135;-94
2022/10/30 06:39:26;;;;;;;26.23;8.75;;;;;;;8.29;100.00;99469.31;5065126;28;20053;-92
2022/10/30 06:41:52;;;;;;;20.23;8.98;;;;;;;8.37;100.00;99471.91;5060925;28;20068;-92
2022/10/30 06:44:18;;;;;;;18.58;8.45;;;;;;;8.52;100.00;99484.22;5065866;28;20100;-94
2022/10/30 06:46:44;;;;;;;17.73;8.80;;;;;;;8.51;100.00;99479.81;5062801;28;20098;-93
2022/10/30 06:49:09;;;;;;;19.48;8.30;;;;;;;8.55;100.00;99486.84;5060535;28;20038;-93
2022/10/30 06:51:35;;;;;;;18.05;8.57;;;;;;;8.73;100.00;99502.59;5062372;28;20041;-94
2022/10/30 06:54:03;;;;;;;20.98;9.00;;;;;;;8.68;100.00;99477.91;5062792;28;20456;-93
2022/10/30 06:56:29;;;;;;;19.65;9.13;;;;;;;8.93;100.00;99507.75;5061968;28;20045;-93
2022/10/30 06:58:55;;;;;;;20.85;8.60;;;;;;;8.92;100.00;99489.22;5062964;28;20054;-94
2022/10/30 07:01:21;;;;;;;20.63;9.02;;;;;;;9.12;100.00;99512.91;5061636;28;20064;-93
2022/10/30 07:03:47;;;;;;;24.98;9.15;;;;;;;9.05;100.00;99489.06;5068185;28;20049;-94
2022/10/30 07:06:12;;;;;;;18.27;8.82;;;;;;;9.35;100.00;99515.34;5062378;28;20069;-93
2022/10/30 07:08:38;;;;;;;18.00;8.60;;;;;;;9.28;100.00;99484.44;5065157;28;20056;-92
2022/10/30 07:11:06;;;;;;;16.95;8.85;;;;;;;9.54;100.00;99508.03;5069368;28;20397;-92
2022/10/30 07:13:32;;;;;;;28.75;10.40;;;;;;;9.60;100.00;99503.53;5069539;28;20049;-92
2022/10/30 07:15:58;;;;;;;31.52;12.15;;;;;;;9.70;100.00;99487.53;5068027;28;20051;-92
2022/10/30 07:18:24;;;;;;;35.20;12.45;;;;;;;9.92;100.00;99509.38;5064988;28;20052;-92
2022/10/30 07:20:54;;;;;;;33.08;12.05;;;;;;;10.08;100.00;99519.81;5063444;28;20049;-93
2022/10/30 07:23:19;;;;;;;29.15;10.98;;;;;;;10.13;100.00;99500.22;5067715;28;20068;-93
2022/10/30 07:25:45;;;;;;;24.30;10.35;;;;;;;10.30;100.00;99511.56;5067852;28;20072;-94
2022/10/30 07:28:13;;;;;;;17.83;9.15;;;;;;;10.49;100.00;99514.81;5064087;28;20071;-94
2022/10/30 07:30:38;;;;;;;21.50;9.07;;;;;;;10.46;100.00;99491.81;5064398;28;20044;-94
2022/10/30 07:33:06;;;;;;;18.42;9.57;;;;;;;10.77;99.78;99525.91;5064591;28;20039;-95
2022/10/30 07:35:34;;;;;;;17.10;8.25;;;;;;;10.72;97.72;99487.88;5068082;28;20041;-94
2022/10/30 07:38:02;;;;;;;17.67;8.47;;;;;;;10.83;95.94;99491.25;5066856;28;20045;-93
2022/10/30 07:40:28;;;;;;;13.85;7.72;;;;;;;11.08;95.74;99506.78;5067214;28;20041;-91
2022/10/30 07:42:57;;;;;;;18.13;8.90;;;;;;;11.15;95.04;99494.28;5070470;28;20128;-93
2022/10/30 07:45:25;;;;;;;18.15;8.20;;;;;;;11.28;93.37;99490.47;5068445;28;20116;-93
2022/10/30 07:47:51;;;;;;;17.77;9.02;;;;;;;11.45;92.95;99504.34;5067694;28;20045;-93
2022/10/30 07:50:18;;;;;;;25.25;9.43;;;;;;;11.51;91.94;99500.69;5060764;28;20410;-94
2022/10/30 07:52:43;;;;;;;16.77;8.15;;;;;;;11.61;90.56;99501.38;5067221;28;20045;-92
2022/10/30 07:55:09;;;;;;;19.95;8.27;;;;;;;11.74;88.43;99518.03;5067334;28;20135;-93
2022/10/30 07:57:36;;;;;;;22.10;7.88;;;;;;;11.82;88.74;99516.06;5073315;28;20044;-94
2022/10/30 08:00:04;;;;;;;20.00;8.68;;;;;;;11.95;88.87;99522.03;5067631;28;20052;-92
2022/10/30 08:02:31;;;;;;;17.17;7.45;;;;;;;12.14;87.39;99520.75;5072223;28;20053;-92
2022/10/30 08:04:57;;;;;;;14.90;7.60;;;;;;;12.11;86.20;99491.50;5067450;28;20052;-94
2022/10/30 08:07:28;;;;;;;17.77;7.97;;;;;;;12.40;85.30;99525.50;5072520;28;20040;-94
2022/10/30 08:09:54;;;;;;;13.35;6.18;;;;;;;12.57;83.69;99522.47;5069998;28;20120;-95
2022/10/30 08:12:20;;;;;;;21.20;7.82;;;;;;;12.63;82.40;99502.78;5061311;28;20041;-91
2022/10/30 08:14:46;;;;;;;10.63;5.00;;;;;;;12.79;79.95;99506.81;5067947;28;20074;-93
2022/10/30 08:17:12;;;;;;;9.77;4.57;;;;;;;12.98;78.67;99517.06;5064347;28;20060;-93
2022/10/30 08:19:39;;;;;;;10.50;4.75;;;;;;;13.23;76.82;99523.53;5069231;28;20041;-94
2022/10/30 08:22:05;;;;;;;12.48;5.78;;;;;;;13.37;74.90;99514.31;5065706;28;20105;-94
2022/10/30 08:24:31;;;;;;;13.90;4.72;;;;;;;13.47;74.59;99521.19;5066554;28;20053;-92
2022/10/30 08:26:57;;;;;;;8.30;4.40;;;;;;;13.33;73.45;99510.84;5069302;28;20051;-94
2022/10/30 08:29:23;;;;;;;8.23;4.15;;;;;;;13.26;74.66;99512.75;5062976;28;20090;-95
2022/10/30 08:31:50;;;;;;;9.57;4.28;;;;;;;13.31;72.80;99508.19;5070732;28;20424;-93
2022/10/30 08:34:16;;;;;;;9.40;4.50;;;;;;;13.40;74.44;99499.06;5070438;28;20059;-92
2022/10/30 08:36:43;;;;;;;8.38;4.50;;;;;;;13.64;72.65;99515.34;5072251;28;20040;-95
2022/10/30 08:39:09;;;;;;;9.70;4.30;;;;;;;13.51;71.80;99494.34;5074322;28;20056;-94
2022/10/30 08:41:35;;;;;;;7.95;4.18;;;;;;;13.68;72.92;99504.53;5072795;28;20044;-93
2022/10/30 08:44:01;;;;;;;11.63;5.13;;;;;;;13.69;72.03;99495.59;5072517;28;20051;-93
2022/10/30 08:46:27;;;;;;;10.85;4.85;;;;;;;13.73;74.77;99491.94;5073117;28;20045;-93
2022/10/30 08:48:54;;;;;;;10.38;4.97;;;;;;;14.02;74.57;99503.56;5068930;28;20387;-92
2022/10/30 08:51:20;;;;;;;13.85;5.70;;;;;;;14.22;73.64;99511.00;5070188;28;20478;-93
2022/10/30 08:53:48;;;;;;;11.50;5.75;;;;;;;14.43;72.94;99525.53;5069264;28;20070;-95
2022/10/30 08:56:17;;;;;;;10.88;5.60;;;;;;;14.44;72.80;99494.28;5069063;28;20068;-93
2022/10/30 08:58:44;;;;;;;11.80;5.72;;;;;;;14.50;71.63;99483.41;5069162;28;20068;-94
2022/10/30 09:01:10;;;;;;;11.20;5.97;;;;;;;14.49;71.84;99487.88;5069671;28;20074;-94
2022/10/30 09:03:37;;;;;;;16.05;5.90;;;;;;;14.36;72.39;99489.19;5072367;28;20047;-94
2022/10/30 09:06:04;;;;;;;12.70;5.65;;;;;;;14.32;73.20;99485.72;5058910;28;20048;-95
2022/10/30 09:08:30;;;;;;;27.02;6.05;;;;;;;14.61;72.93;99523.25;5068752;28;20045;-95
2022/10/30 09:10:58;;;;;;;14.52;5.22;;;;;;;14.60;72.72;99511.66;5059065;28;20049;-95
2022/10/30 09:13:24;;;;;;;14.02;5.90;;;;;;;14.57;72.60;99484.97;5064907;28;20108;-95
2022/10/30 09:15:51;;;;;;;12.85;5.63;;;;;;;14.76;71.93;99493.31;5059592;28;20037;-95
2022/10/30 09:18:17;;;;;;;13.85;6.25;;;;;;;14.75;72.10;99494.25;5062488;28;20109;-93
2022/10/30 09:20:43;;;;;;;12.18;5.53;;;;;;;14.78;73.03;99489.63;5059586;28;20045;-94
2022/10/30 09:23:09;;;;;;;10.90;5.97;;;;;;;14.63;72.86;99484.78;5061298;28;20053;-96
2022/10/30 09:25:37;;;;;;;14.60;6.82;;;;;;;14.84;72.07;99501.97;5065870;28;20428;-95
2022/10/30 09:28:05;;;;;;;15.35;5.90;;;;;;;15.00;72.34;99502.31;5060906;28;20079;-95
2022/10/30 09:30:31;;;;;;;12.05;6.05;;;;;;;15.15;70.33;99503.63;5069568;28;20041;-95
2022/10/30 09:32:58;;;;;;;10.60;5.70;;;;;;;15.26;69.87;99498.75;5061289;28;20059;-96
2022/10/30 09:35:24;;;;;;;11.30;6.07;;;;;;;15.33;69.87;99489.59;5071756;28;20461;-94
2022/10/30 09:37:50;;;;;;;10.70;6.00;;;;;;;15.52;69.58;99487.13;5062006;28;20069;-94
2022/10/30 09:40:22;;;;;;;12.68;5.50;;;;;;;15.81;69.08;99517.44;5062196;28;20094;-95
2022/10/30 09:42:50;;;;;;;10.73;5.28;;;;;;;15.88;67.99;99507.34;5065077;28;20389;-95
2022/10/30 09:45:44;;;;;;;16.20;5.50;;;;;;;15.86;66.83;99496.66;5063405;28;20072;-96
2022/10/30 09:48:31;;;;;;;17.05;5.78;;;;;;;15.95;65.83;99490.94;5057732;28;20107;-95
2022/10/30 09:51:11;;;;;;;14.85;5.47;;;;;;;16.00;66.08;99483.63;5066523;28;20079;-95
2022/10/30 09:53:49;;;;;;;8.93;4.82;;;;;;;16.25;65.49;99492.53;5065511;28;20077;-95
2022/10/30 09:56:23;;;;;;;10.77;5.47;;;;;;;16.26;66.22;99476.34;5063373;28;20033;-95
2022/10/30 09:58:59;;;;;;;19.20;5.75;;;;;;;16.27;64.44;99466.53;5058230;28;20079;-95
2022/10/30 10:01:34;;;;;;;10.60;5.65;;;;;;;16.46;63.96;99486.34;5062641;28;20064;-95
2022/10/30 10:04:11;;;;;;;12.80;4.82;;;;;;;16.39;62.62;99476.75;5080947;28;20054;-96
2022/10/30 10:06:43;;;;;;;8.45;4.90;;;;;;;16.41;63.11;99465.00;5076605;28;20106;-95
2022/10/30 10:09:16;;;;;;;8.85;4.10;;;;;;;16.49;62.63;99459.34;5066332;28;20052;-96
2022/10/30 10:11:47;;;;;;;12.27;4.72;;;;;;;16.53;61.07;99454.75;5063746;28;20133;-96
2022/10/30 10:14:17;;;;;;;9.55;4.70;;;;;;;16.62;61.19;99459.72;5059409;28;20050;-95
2022/10/30 10:16:50;;;;;;;11.07;4.75;;;;;;;16.75;59.46;99463.66;5057072;28;20044;-94
2022/10/30 10:19:20;;;;;;;9.45;4.22;;;;;;;16.65;58.13;99451.53;5062456;28;20049;-95
2022/10/30 10:21:51;;;;;;;10.32;3.88;;;;;;;16.75;57.66;99468.16;5060915;28;20072;-95
2022/10/30 10:24:22;;;;;;;9.82;4.60;;;;;;;16.72;57.76;99468.28;5060013;28;20515;-94
2022/10/30 10:26:49;;;;;;;10.38;4.03;;;;;;;16.68;57.62;99438.00;5061480;28;20048;-96
2022/10/30 10:29:30;;;;;;;9.48;3.85;;;;;;;16.74;57.65;99445.81;5061318;28;20056;-94
2022/10/30 10:32:22;;;;;;;7.50;4.18;;;;;;;16.83;56.33;99447.28;5042097;28;20069;-95
2022/10/30 10:34:59;;;;;;;8.88;3.78;;;;;;;16.83;57.53;99445.44;5016832;28;20045;-96
2022/10/30 10:37:35;;;;;;;10.00;4.38;;;;;;;16.89;57.56;99438.06;5051625;28;20041;-94
2022/10/30 10:40:25;;;;;;;11.02;4.43;;;;;;;16.95;57.48;99432.44;5066953;28;20071;-96
2022/10/30 10:43:08;;;;;;;8.30;4.20;;;;;;;17.08;57.49;99451.59;5067829;28;20473;-95
2022/10/30 10:45:42;;;;;;;10.68;4.20;;;;;;;17.02;57.69;99441.97;5045458;28;20045;-96
2022/10/30 10:48:37;;;;;;;8.25;3.90;;;;;;;17.01;56.99;99421.44;5053604;28;20036;-95
2022/10/30 10:51:09;;;;;;;8.25;3.83;;;;;;;17.04;56.02;99435.63;5088253;28;20079;-96
2022/10/30 10:53:43;;;;;;;7.88;4.18;;;;;;;17.00;55.80;99423.25;5086922;28;20075;-94
2022/10/30 10:56:10;;;;;;;7.50;4.00;;;;;;;17.03;56.27;99422.25;5081900;28;20059;-93
2022/10/30 10:58:43;;;;;;;12.27;4.35;;;;;;;17.18;55.97;99431.44;5087228;28;20044;-93
2022/10/30 11:01:14;;;;;;;9.15;4.50;;;;;;;17.16;54.90;99420.75;5084656;28;20105;-93
2022/10/30 11:03:51;;;;;;;8.40;4.35;;;;;;;17.23;56.74;99421.38;5082201;28;20507;-94
2022/10/30 11:06:20;;;;;;;10.05;4.10;;;;;;;17.24;56.89;99401.63;5068393;28;20033;-94
2022/10/30 11:08:46;;;;;;;7.10;4.10;;;;;;;17.33;56.63;99409.28;5067070;28;20106;-93
2022/10/30 11:11:13;;;;;;;9.30;4.10;;;;;;;17.47;55.55;99419.41;5082749;28;20578;-94
2022/10/30 11:13:47;;;;;;;12.45;4.00;;;;;;;17.56;53.76;99420.78;5086151;28;20043;-93
2022/10/30 11:16:26;;;;;;;8.23;3.97;;;;;;;17.53;54.32;99405.69;5088085;28;20044;-94
2022/10/30 11:18:57;;;;;;;7.93;3.88;;;;;;;17.54;53.51;99390.41;5084065;28;20089;-95
2022/10/30 11:21:24;;;;;;;9.75;4.85;;;;;;;17.62;55.45;99399.00;5086308;28;20127;-96
2022/10/30 11:23:51;;;;;;;10.73;4.40;;;;;;;17.64;55.08;99383.69;5086121;28;20044;-95
2022/10/30 11:26:31;;;;;;;8.52;3.97;;;;;;;17.79;54.32;99395.53;5085325;28;20041;-94
2022/10/30 11:29:03;;;;;;;11.15;4.30;;;;;;;17.73;56.38;99385.94;5041918;28;20041;-95